sensor_id;sensor_type;location;lat;lon;timestamp;P1;durP1;ratioP1;P2;durP2;ratioP2
42886;SDS011;29032;56.028;92.904;2022-07-06T00:02:52;5.10;;;4.57;;
42886;SDS011;29032;56.028;92.904;2022-07-06T00:07:54;12.50;;;6.05;;
42886;SDS011;29032;56.028;92.904;2022-07-06T00:12:58;7.15;;;4.70;;
42886;SDS011;29032;56.028;92.904;2022-07-06T00:18:00;7.32;;;5.07;;
42886;SDS011;29032;56.028;92.904;2022-07-06T00:23:02;5.63;;;4.85;;
42886;SDS011;29032;56.028;92.904;2022-07-06T00:28:06;12.30;;;5.82;;
42886;SDS011;29032;56.028;92.904;2022-07-06T00:33:08;5.75;;;4.43;;
42886;SDS011;29032;56.028;92.904;2022-07-06T00:38:10;7.68;;;5.00;;
42886;SDS011;29032;56.028;92.904;2022-07-06T00:43:13;9.27;;;5.47;;
42886;SDS011;29032;56.028;92.904;2022-07-06T00:48:16;5.75;;;4.57;;
42886;SDS011;29032;56.028;92.904;2022-07-06T00:53:18;9.38;;;4.88;;
42886;SDS011;29032;56.028;92.904;2022-07-06T00:58:21;6.40;;;4.75;;
42886;SDS011;29032;56.028;92.904;2022-07-06T01:03:23;7.78;;;4.85;;
42886;SDS011;29032;56.028;92.904;2022-07-06T01:08:26;8.63;;;5.38;;
42886;SDS011;29032;56.028;92.904;2022-07-06T01:13:30;8.57;;;5.03;;
42886;SDS011;29032;56.028;92.904;2022-07-06T01:18:34;7.50;;;5.53;;
42886;SDS011;29032;56.028;92.904;2022-07-06T01:23:42;7.90;;;5.43;;
42886;SDS011;29032;56.028;92.904;2022-07-06T01:28:46;7.68;;;5.22;;
42886;SDS011;29032;56.028;92.904;2022-07-06T01:33:50;7.88;;;4.80;;
42886;SDS011;29032;56.028;92.904;2022-07-06T01:38:55;7.53;;;5.50;;
42886;SDS011;29032;56.028;92.904;2022-07-06T01:43:57;6.80;;;4.70;;
42886;SDS011;29032;56.028;92.904;2022-07-06T01:48:59;8.55;;;4.82;;
42886;SDS011;29032;56.028;92.904;2022-07-06T01:54:04;8.27;;;5.35;;
42886;SDS011;29032;56.028;92.904;2022-07-06T01:59:06;8.25;;;5.80;;
42886;SDS011;29032;56.028;92.904;2022-07-06T02:04:08;10.52;;;5.28;;
42886;SDS011;29032;56.028;92.904;2022-07-06T02:09:12;8.43;;;5.72;;
42886;SDS011;29032;56.028;92.904;2022-07-06T02:14:14;7.80;;;5.40;;
42886;SDS011;29032;56.028;92.904;2022-07-06T02:19:17;7.82;;;5.82;;
42886;SDS011;29032;56.028;92.904;2022-07-06T02:24:22;12.95;;;5.63;;
42886;SDS011;29032;56.028;92.904;2022-07-06T02:29:24;10.38;;;6.10;;
42886;SDS011;29032;56.028;92.904;2022-07-06T02:34:26;10.88;;;5.75;;
42886;SDS011;29032;56.028;92.904;2022-07-06T02:39:32;8.73;;;5.78;;
42886;SDS011;29032;56.028;92.904;2022-07-06T02:44:34;7.97;;;6.05;;
42886;SDS011;29032;56.028;92.904;2022-07-06T02:49:36;12.68;;;5.70;;
42886;SDS011;29032;56.028;92.904;2022-07-06T02:54:40;10.25;;;6.00;;
42886;SDS011;29032;56.028;92.904;2022-07-06T02:59:42;7.72;;;5.45;;
42886;SDS011;29032;56.028;92.904;2022-07-06T03:04:45;7.32;;;5.13;;
42886;SDS011;29032;56.028;92.904;2022-07-06T03:09:49;8.85;;;4.38;;
42886;SDS011;29032;56.028;92.904;2022-07-06T03:14:52;9.65;;;5.30;;
42886;SDS011;29032;56.028;92.904;2022-07-06T03:19:54;6.63;;;4.95;;
42886;SDS011;29032;56.028;92.904;2022-07-06T03:24:59;6.78;;;4.55;;
42886;SDS011;29032;56.028;92.904;2022-07-06T03:30:02;6.85;;;4.75;;
42886;SDS011;29032;56.028;92.904;2022-07-06T03:35:07;7.68;;;4.68;;
42886;SDS011;29032;56.028;92.904;2022-07-06T03:40:11;7.63;;;5.22;;
42886;SDS011;29032;56.028;92.904;2022-07-06T03:45:14;8.75;;;5.10;;
42886;SDS011;29032;56.028;92.904;2022-07-06T03:50:16;13.13;;;6.05;;
42886;SDS011;29032;56.028;92.904;2022-07-06T03:55:20;6.57;;;4.78;;
42886;SDS011;29032;56.028;92.904;2022-07-06T04:00:28;8.50;;;5.00;;
42886;SDS011;29032;56.028;92.904;2022-07-06T04:05:36;9.18;;;5.50;;
42886;SDS011;29032;56.028;92.904;2022-07-06T04:10:40;8.13;;;5.20;;
42886;SDS011;29032;56.028;92.904;2022-07-06T04:15:42;9.25;;;5.07;;
42886;SDS011;29032;56.028;92.904;2022-07-06T04:20:45;8.27;;;5.85;;
42886;SDS011;29032;56.028;92.904;2022-07-06T04:25:49;12.48;;;6.00;;
42886;SDS011;29032;56.028;92.904;2022-07-06T04:30:53;9.50;;;5.93;;
42886;SDS011;29032;56.028;92.904;2022-07-06T04:35:58;7.68;;;5.70;;
42886;SDS011;29032;56.028;92.904;2022-07-06T04:41:08;9.07;;;5.22;;
42886;SDS011;29032;56.028;92.904;2022-07-06T04:46:11;8.50;;;5.72;;
42886;SDS011;29032;56.028;92.904;2022-07-06T04:51:16;15.07;;;6.77;;
42886;SDS011;29032;56.028;92.904;2022-07-06T04:56:20;8.10;;;4.57;;
42886;SDS011;29032;56.028;92.904;2022-07-06T05:01:23;8.83;;;5.07;;
42886;SDS011;29032;56.028;92.904;2022-07-06T05:06:25;11.73;;;5.55;;
42886;SDS011;29032;56.028;92.904;2022-07-06T05:11:29;8.60;;;3.95;;
42886;SDS011;29032;56.028;92.904;2022-07-06T05:16:31;9.93;;;4.88;;
42886;SDS011;29032;56.028;92.904;2022-07-06T05:21:34;8.35;;;4.60;;
42886;SDS011;29032;56.028;92.904;2022-07-06T05:26:38;9.05;;;4.40;;
42886;SDS011;29032;56.028;92.904;2022-07-06T05:31:40;9.00;;;4.50;;
42886;SDS011;29032;56.028;92.904;2022-07-06T05:36:43;8.13;;;4.15;;
42886;SDS011;29032;56.028;92.904;2022-07-06T05:41:47;6.20;;;3.95;;
42886;SDS011;29032;56.028;92.904;2022-07-06T05:46:49;5.65;;;5.15;;
42886;SDS011;29032;56.028;92.904;2022-07-06T05:51:52;4.25;;;3.42;;
42886;SDS011;29032;56.028;92.904;2022-07-06T05:56:57;6.63;;;3.17;;
42886;SDS011;29032;56.028;92.904;2022-07-06T06:01:59;4.45;;;3.15;;
42886;SDS011;29032;56.028;92.904;2022-07-06T06:07:02;5.72;;;3.08;;
42886;SDS011;29032;56.028;92.904;2022-07-06T06:12:07;4.65;;;2.80;;
42886;SDS011;29032;56.028;92.904;2022-07-06T06:17:09;3.75;;;2.85;;
42886;SDS011;29032;56.028;92.904;2022-07-06T06:22:11;5.53;;;3.00;;
42886;SDS011;29032;56.028;92.904;2022-07-06T06:27:15;4.35;;;2.30;;
42886;SDS011;29032;56.028;92.904;2022-07-06T06:32:18;2.47;;;2.28;;
42886;SDS011;29032;56.028;92.904;2022-07-06T06:37:20;5.70;;;2.65;;
42886;SDS011;29032;56.028;92.904;2022-07-06T06:42:23;2.60;;;2.40;;
42886;SDS011;29032;56.028;92.904;2022-07-06T06:47:26;4.35;;;2.45;;
42886;SDS011;29032;56.028;92.904;2022-07-06T06:52:28;7.22;;;3.00;;
42886;SDS011;29032;56.028;92.904;2022-07-06T06:57:32;3.30;;;2.40;;
42886;SDS011;29032;56.028;92.904;2022-07-06T07:02:34;4.20;;;2.70;;
42886;SDS011;29032;56.028;92.904;2022-07-06T07:07:36;4.90;;;2.58;;
42886;SDS011;29032;56.028;92.904;2022-07-06T07:12:46;3.22;;;2.30;;
42886;SDS011;29032;56.028;92.904;2022-07-06T07:17:49;3.05;;;2.03;;
42886;SDS011;29032;56.028;92.904;2022-07-06T07:22:51;2.85;;;2.22;;
42886;SDS011;29032;56.028;92.904;2022-07-06T07:27:54;4.10;;;1.88;;
42886;SDS011;29032;56.028;92.904;2022-07-06T07:32:56;2.53;;;1.90;;
42886;SDS011;29032;56.028;92.904;2022-07-06T07:37:58;2.65;;;2.00;;
42886;SDS011;29032;56.028;92.904;2022-07-06T07:43:02;3.40;;;1.70;;
42886;SDS011;29032;56.028;92.904;2022-07-06T07:48:04;5.28;;;1.92;;
42886;SDS011;29032;56.028;92.904;2022-07-06T07:53:07;3.58;;;1.75;;
42886;SDS011;29032;56.028;92.904;2022-07-06T07:58:11;4.28;;;2.10;;
42886;SDS011;29032;56.028;92.904;2022-07-06T08:03:13;2.25;;;1.58;;
42886;SDS011;29032;56.028;92.904;2022-07-06T08:08:15;7.38;;;2.45;;
42886;SDS011;29032;56.028;92.904;2022-07-06T08:13:19;3.22;;;1.63;;
42886;SDS011;29032;56.028;92.904;2022-07-06T08:18:21;4.53;;;1.40;;
42886;SDS011;29032;56.028;92.904;2022-07-06T08:23:23;2.20;;;1.63;;
42886;SDS011;29032;56.028;92.904;2022-07-06T08:28:27;3.45;;;1.40;;
42886;SDS011;29032;56.028;92.904;2022-07-06T08:33:29;2.38;;;1.48;;
42886;SDS011;29032;56.028;92.904;2022-07-06T08:38:31;2.58;;;1.55;;
42886;SDS011;29032;56.028;92.904;2022-07-06T08:43:35;1.95;;;1.60;;
42886;SDS011;29032;56.028;92.904;2022-07-06T08:48:37;2.28;;;1.70;;
42886;SDS011;29032;56.028;92.904;2022-07-06T08:53:41;1.50;;;1.40;;
42886;SDS011;29032;56.028;92.904;2022-07-06T08:58:45;2.45;;;1.50;;
42886;SDS011;29032;56.028;92.904;2022-07-06T09:03:48;1.42;;;1.30;;
42886;SDS011;29032;56.028;92.904;2022-07-06T09:08:52;2.30;;;1.80;;
42886;SDS011;29032;56.028;92.904;2022-07-06T09:13:57;1.70;;;1.60;;
42886;SDS011;29032;56.028;92.904;2022-07-06T09:18:59;1.40;;;1.30;;
42886;SDS011;29032;56.028;92.904;2022-07-06T09:24:01;2.47;;;1.52;;
42886;SDS011;29032;56.028;92.904;2022-07-06T09:29:09;1.98;;;1.40;;
42886;SDS011;29032;56.028;92.904;2022-07-06T09:34:12;2.05;;;1.73;;
42886;SDS011;29032;56.028;92.904;2022-07-06T09:39:22;1.65;;;1.40;;
42886;SDS011;29032;56.028;92.904;2022-07-06T09:44:27;2.25;;;1.55;;
42886;SDS011;29032;56.028;92.904;2022-07-06T09:49:30;3.93;;;3.03;;
42886;SDS011;29032;56.028;92.904;2022-07-06T09:54:33;3.33;;;1.70;;
42886;SDS011;29032;56.028;92.904;2022-07-06T09:59:37;3.00;;;1.52;;
42886;SDS011;29032;56.028;92.904;2022-07-06T10:04:39;8.45;;;1.52;;
42886;SDS011;29032;56.028;92.904;2022-07-06T10:09:45;1.43;;;1.10;;
42886;SDS011;29032;56.028;92.904;2022-07-06T10:14:50;2.08;;;1.60;;
42886;SDS011;29032;56.028;92.904;2022-07-06T10:19:53;1.60;;;1.50;;
42886;SDS011;29032;56.028;92.904;2022-07-06T10:24:56;1.83;;;1.30;;
42886;SDS011;29032;56.028;92.904;2022-07-06T10:30:00;2.65;;;1.30;;
42886;SDS011;29032;56.028;92.904;2022-07-06T10:35:03;1.95;;;1.40;;
42886;SDS011;29032;56.028;92.904;2022-07-06T10:40:06;2.15;;;1.45;;
42886;SDS011;29032;56.028;92.904;2022-07-06T10:45:12;1.80;;;1.33;;
42886;SDS011;29032;56.028;92.904;2022-07-06T10:50:15;1.77;;;1.30;;
42886;SDS011;29032;56.028;92.904;2022-07-06T11:00:52;3.70;;;1.63;;
42886;SDS011;29032;56.028;92.904;2022-07-06T11:05:57;1.48;;;1.38;;
42886;SDS011;29032;56.028;92.904;2022-07-06T11:11:02;3.85;;;1.70;;
42886;SDS011;29032;56.028;92.904;2022-07-06T11:16:13;1.63;;;1.52;;
42886;SDS011;29032;56.028;92.904;2022-07-06T11:21:19;1.58;;;1.40;;
42886;SDS011;29032;56.028;92.904;2022-07-06T11:26:23;2.03;;;1.60;;
42886;SDS011;29032;56.028;92.904;2022-07-06T11:31:27;3.67;;;1.77;;
42886;SDS011;29032;56.028;92.904;2022-07-06T11:36:29;3.90;;;1.70;;
42886;SDS011;29032;56.028;92.904;2022-07-06T11:41:32;2.33;;;1.48;;
42886;SDS011;29032;56.028;92.904;2022-07-06T11:46:36;3.80;;;1.73;;
42886;SDS011;29032;56.028;92.904;2022-07-06T11:51:38;8.43;;;2.08;;
42886;SDS011;29032;56.028;92.904;2022-07-06T11:56:48;4.88;;;2.08;;
42886;SDS011;29032;56.028;92.904;2022-07-06T12:01:58;1.63;;;1.52;;
42886;SDS011;29032;56.028;92.904;2022-07-06T12:07:02;1.90;;;1.60;;
42886;SDS011;29032;56.028;92.904;2022-07-06T12:12:05;2.15;;;1.58;;
42886;SDS011;29032;56.028;92.904;2022-07-06T12:17:10;2.65;;;1.70;;
42886;SDS011;29032;56.028;92.904;2022-07-06T12:22:13;2.08;;;1.80;;
42886;SDS011;29032;56.028;92.904;2022-07-06T12:27:26;1.90;;;1.60;;
42886;SDS011;29032;56.028;92.904;2022-07-06T12:32:30;1.48;;;1.38;;
42886;SDS011;29032;56.028;92.904;2022-07-06T12:37:32;1.50;;;1.40;;
42886;SDS011;29032;56.028;92.904;2022-07-06T12:42:35;2.65;;;1.50;;
42886;SDS011;29032;56.028;92.904;2022-07-06T12:47:58;2.53;;;1.60;;
42886;SDS011;29032;56.028;92.904;2022-07-06T12:53:01;1.88;;;1.67;;
42886;SDS011;29032;56.028;92.904;2022-07-06T12:58:04;2.28;;;1.60;;
42886;SDS011;29032;56.028;92.904;2022-07-06T13:03:07;1.95;;;1.83;;
42886;SDS011;29032;56.028;92.904;2022-07-06T13:08:09;3.67;;;2.00;;
42886;SDS011;29032;56.028;92.904;2022-07-06T13:13:11;2.67;;;1.80;;
42886;SDS011;29032;56.028;92.904;2022-07-06T13:18:15;1.92;;;1.70;;
42886;SDS011;29032;56.028;92.904;2022-07-06T13:23:18;1.52;;;1.42;;
42886;SDS011;29032;56.028;92.904;2022-07-06T13:28:20;2.03;;;1.45;;
42886;SDS011;29032;56.028;92.904;2022-07-06T13:33:24;2.13;;;1.60;;
42886;SDS011;29032;56.028;92.904;2022-07-06T13:38:26;2.50;;;1.80;;
42886;SDS011;29032;56.028;92.904;2022-07-06T13:43:28;1.98;;;1.70;;
42886;SDS011;29032;56.028;92.904;2022-07-06T13:48:32;2.25;;;1.77;;
42886;SDS011;29032;56.028;92.904;2022-07-06T13:53:35;1.77;;;1.42;;
42886;SDS011;29032;56.028;92.904;2022-07-06T13:58:37;3.55;;;2.60;;
42886;SDS011;29032;56.028;92.904;2022-07-06T14:03:41;1.63;;;1.48;;
42886;SDS011;29032;56.028;92.904;2022-07-06T14:08:43;2.13;;;1.25;;
42886;SDS011;29032;56.028;92.904;2022-07-06T14:13:46;1.80;;;1.70;;
42886;SDS011;29032;56.028;92.904;2022-07-06T14:18:49;2.90;;;1.48;;
42886;SDS011;29032;56.028;92.904;2022-07-06T14:23:51;1.40;;;1.30;;
42886;SDS011;29032;56.028;92.904;2022-07-06T14:28:54;3.70;;;2.92;;
42886;SDS011;29032;56.028;92.904;2022-07-06T14:33:57;1.83;;;1.45;;
42886;SDS011;29032;56.028;92.904;2022-07-06T14:38:59;3.22;;;1.50;;
42886;SDS011;29032;56.028;92.904;2022-07-06T14:44:01;3.90;;;1.58;;
42886;SDS011;29032;56.028;92.904;2022-07-06T14:49:05;2.83;;;1.70;;
42886;SDS011;29032;56.028;92.904;2022-07-06T14:54:07;2.75;;;1.67;;
42886;SDS011;29032;56.028;92.904;2022-07-06T14:59:10;3.92;;;1.75;;
42886;SDS011;29032;56.028;92.904;2022-07-06T15:04:13;3.13;;;2.38;;
42886;SDS011;29032;56.028;92.904;2022-07-06T15:09:15;2.92;;;2.15;;
42886;SDS011;29032;56.028;92.904;2022-07-06T15:14:17;3.03;;;1.80;;
42886;SDS011;29032;56.028;92.904;2022-07-06T15:19:21;4.03;;;1.55;;
42886;SDS011;29032;56.028;92.904;2022-07-06T15:24:23;3.92;;;1.73;;
42886;SDS011;29032;56.028;92.904;2022-07-06T15:29:26;3.45;;;2.78;;
42886;SDS011;29032;56.028;92.904;2022-07-06T15:34:29;3.05;;;1.67;;
42886;SDS011;29032;56.028;92.904;2022-07-06T15:39:31;4.78;;;1.70;;
42886;SDS011;29032;56.028;92.904;2022-07-06T15:44:33;3.80;;;1.90;;
42886;SDS011;29032;56.028;92.904;2022-07-06T15:49:37;2.65;;;1.73;;
42886;SDS011;29032;56.028;92.904;2022-07-06T15:54:39;3.72;;;2.05;;
42886;SDS011;29032;56.028;92.904;2022-07-06T15:59:41;5.10;;;2.40;;
42886;SDS011;29032;56.028;92.904;2022-07-06T16:04:45;5.28;;;2.67;;
42886;SDS011;29032;56.028;92.904;2022-07-06T16:09:47;5.15;;;2.75;;
42886;SDS011;29032;56.028;92.904;2022-07-06T16:14:49;3.15;;;2.17;;
42886;SDS011;29032;56.028;92.904;2022-07-06T16:19:53;2.83;;;2.20;;
42886;SDS011;29032;56.028;92.904;2022-07-06T16:24:55;4.35;;;2.30;;
42886;SDS011;29032;56.028;92.904;2022-07-06T16:29:57;2.25;;;2.00;;
42886;SDS011;29032;56.028;92.904;2022-07-06T16:35:01;2.58;;;2.17;;
42886;SDS011;29032;56.028;92.904;2022-07-06T16:40:03;2.78;;;2.10;;
42886;SDS011;29032;56.028;92.904;2022-07-06T16:45:07;2.90;;;2.60;;
42886;SDS011;29032;56.028;92.904;2022-07-06T16:50:11;3.95;;;2.78;;
42886;SDS011;29032;56.028;92.904;2022-07-06T16:55:13;2.85;;;2.38;;
42886;SDS011;29032;56.028;92.904;2022-07-06T17:00:16;7.38;;;3.05;;
42886;SDS011;29032;56.028;92.904;2022-07-06T17:05:19;6.80;;;3.20;;
42886;SDS011;29032;56.028;92.904;2022-07-06T17:10:21;3.75;;;2.45;;
42886;SDS011;29032;56.028;92.904;2022-07-06T17:15:24;4.57;;;2.30;;
42886;SDS011;29032;56.028;92.904;2022-07-06T17:20:27;4.15;;;2.58;;
42886;SDS011;29032;56.028;92.904;2022-07-06T17:25:30;5.45;;;2.42;;
42886;SDS011;29032;56.028;92.904;2022-07-06T17:30:32;5.57;;;2.75;;
42886;SDS011;29032;56.028;92.904;2022-07-06T17:35:36;5.60;;;3.08;;
42886;SDS011;29032;56.028;92.904;2022-07-06T17:40:38;3.38;;;3.05;;
42886;SDS011;29032;56.028;92.904;2022-07-06T17:45:40;3.65;;;2.70;;
42886;SDS011;29032;56.028;92.904;2022-07-06T17:50:44;4.10;;;2.80;;
42886;SDS011;29032;56.028;92.904;2022-07-06T17:55:46;5.10;;;3.05;;
42886;SDS011;29032;56.028;92.904;2022-07-06T18:00:49;3.85;;;2.60;;
42886;SDS011;29032;56.028;92.904;2022-07-06T18:05:52;6.68;;;3.70;;
42886;SDS011;29032;56.028;92.904;2022-07-06T18:10:54;5.40;;;3.20;;
42886;SDS011;29032;56.028;92.904;2022-07-06T18:15:57;5.43;;;3.15;;
42886;SDS011;29032;56.028;92.904;2022-07-06T18:21:00;4.07;;;3.55;;
42886;SDS011;29032;56.028;92.904;2022-07-06T18:26:02;6.55;;;3.75;;
42886;SDS011;29032;56.028;92.904;2022-07-06T18:31:05;4.88;;;3.45;;
42886;SDS011;29032;56.028;92.904;2022-07-06T18:36:09;4.78;;;3.90;;
42886;SDS011;29032;56.028;92.904;2022-07-06T18:41:11;5.15;;;3.65;;
42886;SDS011;29032;56.028;92.904;2022-07-06T18:46:13;4.32;;;3.65;;
42886;SDS011;29032;56.028;92.904;2022-07-06T18:51:16;3.60;;;3.13;;
42886;SDS011;29032;56.028;92.904;2022-07-06T18:56:19;4.00;;;3.40;;
42886;SDS011;29032;56.028;92.904;2022-07-06T19:01:21;5.20;;;3.38;;
42886;SDS011;29032;56.028;92.904;2022-07-06T19:06:24;5.07;;;3.45;;
42886;SDS011;29032;56.028;92.904;2022-07-06T19:11:27;3.55;;;3.25;;
42886;SDS011;29032;56.028;92.904;2022-07-06T19:16:29;4.30;;;2.95;;
42886;SDS011;29032;56.028;92.904;2022-07-06T19:21:32;4.32;;;3.03;;
42886;SDS011;29032;56.028;92.904;2022-07-06T19:26:34;4.53;;;3.13;;
42886;SDS011;29032;56.028;92.904;2022-07-06T19:31:37;3.85;;;3.17;;
42886;SDS011;29032;56.028;92.904;2022-07-06T19:36:40;3.95;;;3.03;;
42886;SDS011;29032;56.028;92.904;2022-07-06T19:41:42;3.03;;;2.72;;
42886;SDS011;29032;56.028;92.904;2022-07-06T19:46:45;4.82;;;3.10;;
42886;SDS011;29032;56.028;92.904;2022-07-06T19:51:48;4.35;;;2.95;;
42886;SDS011;29032;56.028;92.904;2022-07-06T19:56:50;4.97;;;3.40;;
42886;SDS011;29032;56.028;92.904;2022-07-06T20:01:52;3.50;;;3.05;;
42886;SDS011;29032;56.028;92.904;2022-07-06T20:06:56;3.05;;;2.75;;
42886;SDS011;29032;56.028;92.904;2022-07-06T20:11:58;3.80;;;2.83;;
42886;SDS011;29032;56.028;92.904;2022-07-06T20:17:00;2.67;;;2.42;;
42886;SDS011;29032;56.028;92.904;2022-07-06T20:22:04;3.25;;;2.50;;
42886;SDS011;29032;56.028;92.904;2022-07-06T20:27:06;2.53;;;2.30;;
42886;SDS011;29032;56.028;92.904;2022-07-06T20:32:08;3.10;;;2.80;;
42886;SDS011;29032;56.028;92.904;2022-07-06T20:37:12;2.90;;;2.60;;
42886;SDS011;29032;56.028;92.904;2022-07-06T20:47:38;3.33;;;3.03;;
42886;SDS011;29032;56.028;92.904;2022-07-06T20:52:41;2.97;;;2.53;;
42886;SDS011;29032;56.028;92.904;2022-07-06T20:57:44;2.88;;;2.67;;
42886;SDS011;29032;56.028;92.904;2022-07-06T21:02:46;2.70;;;2.50;;
42886;SDS011;29032;56.028;92.904;2022-07-06T21:07:50;3.88;;;3.10;;
42886;SDS011;29032;56.028;92.904;2022-07-06T21:12:52;4.57;;;2.95;;
42886;SDS011;29032;56.028;92.904;2022-07-06T21:17:54;6.22;;;3.70;;
42886;SDS011;29032;56.028;92.904;2022-07-06T21:22:58;4.60;;;3.40;;
42886;SDS011;29032;56.028;92.904;2022-07-06T21:28:00;4.10;;;3.30;;
42886;SDS011;29032;56.028;92.904;2022-07-06T21:33:02;4.78;;;3.17;;
42886;SDS011;29032;56.028;92.904;2022-07-06T21:38:05;3.22;;;2.95;;
42886;SDS011;29032;56.028;92.904;2022-07-06T21:43:07;3.63;;;2.78;;
42886;SDS011;29032;56.028;92.904;2022-07-06T21:48:10;3.53;;;2.85;;
42886;SDS011;29032;56.028;92.904;2022-07-06T21:53:13;3.25;;;2.95;;
42886;SDS011;29032;56.028;92.904;2022-07-06T21:58:15;3.20;;;2.70;;
42886;SDS011;29032;56.028;92.904;2022-07-06T22:03:17;4.05;;;2.78;;
42886;SDS011;29032;56.028;92.904;2022-07-06T22:08:21;3.83;;;2.85;;
42886;SDS011;29032;56.028;92.904;2022-07-06T22:13:23;3.45;;;2.97;;
42886;SDS011;29032;56.028;92.904;2022-07-06T22:18:25;5.38;;;3.58;;
42886;SDS011;29032;56.028;92.904;2022-07-06T22:23:29;5.78;;;3.15;;
42886;SDS011;29032;56.028;92.904;2022-07-06T22:28:31;5.22;;;4.15;;
42886;SDS011;29032;56.028;92.904;2022-07-06T22:33:33;3.45;;;2.97;;
42886;SDS011;29032;56.028;92.904;2022-07-06T22:38:37;4.63;;;2.85;;
42886;SDS011;29032;56.028;92.904;2022-07-06T22:43:39;3.47;;;3.17;;
42886;SDS011;29032;56.028;92.904;2022-07-06T22:48:41;3.17;;;2.90;;
42886;SDS011;29032;56.028;92.904;2022-07-06T22:53:45;5.90;;;3.00;;
42886;SDS011;29032;56.028;92.904;2022-07-06T22:58:47;4.28;;;3.00;;
42886;SDS011;29032;56.028;92.904;2022-07-06T23:03:49;4.70;;;3.03;;
42886;SDS011;29032;56.028;92.904;2022-07-06T23:08:53;3.92;;;3.53;;
42886;SDS011;29032;56.028;92.904;2022-07-06T23:13:56;3.72;;;2.88;;
42886;SDS011;29032;56.028;92.904;2022-07-06T23:18:58;4.05;;;3.10;;
42886;SDS011;29032;56.028;92.904;2022-07-06T23:24:01;3.95;;;2.90;;
42886;SDS011;29032;56.028;92.904;2022-07-06T23:29:04;4.25;;;2.55;;
42886;SDS011;29032;56.028;92.904;2022-07-06T23:34:06;4.00;;;3.47;;
42886;SDS011;29032;56.028;92.904;2022-07-06T23:39:09;3.75;;;3.33;;
42886;SDS011;29032;56.028;92.904;2022-07-06T23:44:12;3.60;;;3.17;;
42886;SDS011;29032;56.028;92.904;2022-07-06T23:49:14;3.30;;;2.80;;
42886;SDS011;29032;56.028;92.904;2022-07-06T23:54:18;3.72;;;3.30;;
42886;SDS011;29032;56.028;92.904;2022-07-06T23:59:21;3.70;;;3.40;;
